createdAt,value
2022-07-25T00:00:41.454Z,22.48
2022-07-25T00:01:41.602Z,22.48
2022-07-25T00:02:41.702Z,22.48
2022-07-25T00:03:41.809Z,22.48
2022-07-25T00:04:41.946Z,22.4
2022-07-25T00:05:42.012Z,22.4
2022-07-25T00:06:42.116Z,22.32
2022-07-25T00:07:42.214Z,22.24
2022-07-25T00:08:42.319Z,22.4
2022-07-25T00:09:42.469Z,22.32
2022-07-25T00:10:42.574Z,22.4
2022-07-25T00:11:42.676Z,22.4
2022-07-25T00:12:42.829Z,22.48
2022-07-25T00:13:42.978Z,22.48
2022-07-25T00:14:43.080Z,22.48
2022-07-25T00:15:43.214Z,22.32
2022-07-25T00:16:43.334Z,22.24
2022-07-25T00:17:43.498Z,22.32
2022-07-25T00:18:43.643Z,22.32
2022-07-25T00:19:43.736Z,22.4
2022-07-25T00:20:43.890Z,22.4
2022-07-25T00:21:44.048Z,22.32
2022-07-25T00:22:44.146Z,22.32
2022-07-25T00:23:44.246Z,22.24
2022-07-25T00:24:44.357Z,22.24
2022-07-25T00:25:44.455Z,22.24
2022-07-25T00:26:44.550Z,22.24
2022-07-25T00:27:44.717Z,22.08
2022-07-25T00:28:44.805Z,22.24
2022-07-25T00:29:44.906Z,22.08
2022-07-25T00:30:45.086Z,22.24
2022-07-25T00:31:45.238Z,22.24
2022-07-25T00:32:45.266Z,22.24
2022-07-25T00:33:45.366Z,22.24
2022-07-25T00:34:45.468Z,22.32
2022-07-25T00:35:45.569Z,22.24
2022-07-25T00:36:45.669Z,22.24
2022-07-25T00:37:45.775Z,22.24
2022-07-25T00:38:45.926Z,22.08
2022-07-25T00:39:46.042Z,22.24
2022-07-25T00:40:46.188Z,22.24
2022-07-25T00:41:46.335Z,22.24
2022-07-25T00:42:46.436Z,22.08
2022-07-25T00:43:46.585Z,22.08
2022-07-25T00:44:46.738Z,22.24
2022-07-25T00:45:46.891Z,22.24
2022-07-25T00:46:47.120Z,22.32
2022-07-25T00:47:47.148Z,22.24
2022-07-25T00:48:47.298Z,22.24
2022-07-25T00:49:47.395Z,22.24
2022-07-25T00:50:47.546Z,22.4
2022-07-25T00:51:47.652Z,22.32
2022-07-25T00:52:47.754Z,22.24
2022-07-25T00:53:47.862Z,22.24
2022-07-25T00:54:47.964Z,22.32
2022-07-25T00:55:48.062Z,22.32
2022-07-25T00:56:48.208Z,22.32
2022-07-25T00:57:48.319Z,22.32
2022-07-25T00:58:48.475Z,22.24
2022-07-25T00:59:48.614Z,22.24
2022-07-25T01:00:48.769Z,22.24
2022-07-25T01:01:48.989Z,22.32
2022-07-25T01:02:49.056Z,22.4
2022-07-25T01:03:49.124Z,22.4
2022-07-25T01:04:49.279Z,22.32
2022-07-25T01:05:53.478Z,22.24
2022-07-25T01:06:49.530Z,22.4
2022-07-25T01:07:49.684Z,22.32
2022-07-25T01:08:49.785Z,22.24
2022-07-25T01:09:49.884Z,22.24
2022-07-25T01:10:49.987Z,22
2022-07-25T01:11:50.138Z,22
2022-07-25T01:12:50.293Z,22.24
2022-07-25T01:13:50.396Z,22.24
2022-07-25T01:14:50.494Z,22.24
2022-07-25T01:15:50.662Z,22.24
2022-07-25T01:16:50.716Z,22.32
2022-07-25T01:17:50.855Z,22.32
2022-07-25T01:18:50.955Z,22.24
2022-07-25T01:19:51.055Z,22.4
2022-07-25T01:20:51.209Z,22.24
2022-07-25T01:21:51.306Z,22.24
2022-07-25T01:22:51.460Z,22.4
2022-07-25T01:23:51.563Z,22.4
2022-07-25T01:24:51.665Z,22.4
2022-07-25T01:25:51.815Z,22.32
2022-07-25T01:26:51.920Z,22.4
2022-07-25T01:27:55.402Z,22.48
2022-07-25T01:28:52.181Z,22.48
2022-07-25T01:29:52.279Z,22.4
2022-07-25T01:30:52.413Z,22.4
2022-07-25T01:31:52.531Z,22.4
2022-07-25T01:32:52.640Z,22.48
2022-07-25T01:33:52.800Z,22.48
2022-07-25T01:34:52.935Z,22.4
2022-07-25T01:35:53.035Z,22.4
2022-07-25T01:36:53.140Z,22.48
2022-07-25T01:37:53.302Z,22.48
2022-07-25T01:38:54.000Z,22.4
2022-07-25T01:39:53.545Z,22.48
2022-07-25T01:40:53.702Z,22.48
2022-07-25T01:41:53.847Z,22.4
2022-07-25T01:42:53.949Z,22.4
2022-07-25T01:43:54.105Z,22.48
2022-07-25T01:44:54.257Z,22.4
2022-07-25T01:45:54.397Z,22.4
2022-07-25T01:46:54.511Z,22.4
2022-07-25T01:47:54.612Z,22.64
2022-07-25T01:48:54.865Z,22.48
2022-07-25T01:49:54.870Z,22.4
2022-07-25T01:50:55.019Z,22.32
2022-07-25T01:51:55.129Z,22.32
2022-07-25T01:52:55.278Z,22.4
2022-07-25T01:53:55.373Z,22.4
2022-07-25T01:54:55.478Z,22.32
2022-07-25T01:55:55.628Z,22.4
2022-07-25T01:56:55.783Z,22.24
2022-07-25T01:57:55.884Z,22.32
2022-07-25T01:58:55.980Z,22.4
2022-07-25T01:59:56.132Z,22.4
2022-07-25T02:00:56.409Z,22.4
2022-07-25T02:01:56.388Z,22.32
2022-07-25T02:02:56.437Z,22.32
2022-07-25T02:03:56.543Z,22.24
2022-07-25T02:04:56.707Z,22.24
2022-07-25T02:05:56.749Z,22.32
2022-07-25T02:06:56.849Z,22.24
2022-07-25T02:07:56.954Z,22.24
2022-07-25T02:08:57.100Z,22.24
2022-07-25T02:09:57.204Z,22.24
2022-07-25T02:10:57.305Z,22.24
2022-07-25T02:11:57.407Z,22.32
2022-07-25T02:12:57.558Z,22.08
2022-07-25T02:13:57.720Z,22.08
2022-07-25T02:14:57.813Z,22
2022-07-25T02:15:57.971Z,22.08
2022-07-25T02:16:58.096Z,22.24
2022-07-25T02:17:58.170Z,22.08
2022-07-25T02:18:58.276Z,22.08
2022-07-25T02:19:58.430Z,22.08
2022-07-25T02:20:58.575Z,22.08
2022-07-25T02:21:58.731Z,22
2022-07-25T02:22:58.877Z,22
2022-07-25T02:23:58.983Z,21.92
2022-07-25T02:24:59.082Z,22
2022-07-25T02:25:59.237Z,22
2022-07-25T02:26:59.399Z,21.92
2022-07-25T02:27:59.547Z,21.92
2022-07-25T02:28:59.640Z,22
2022-07-25T02:29:59.791Z,21.92
2022-07-25T02:30:59.968Z,22
2022-07-25T02:31:59.992Z,22
2022-07-25T02:33:00.129Z,21.84
2022-07-25T02:34:00.201Z,21.68
2022-07-25T02:35:00.304Z,21.68
2022-07-25T02:36:00.452Z,21.68
2022-07-25T02:37:00.556Z,21.84
2022-07-25T02:38:00.706Z,21.6
2022-07-25T02:39:00.824Z,21.6
2022-07-25T02:40:01.009Z,21.84
2022-07-25T02:41:01.160Z,21.68
2022-07-25T02:42:01.265Z,21.68
2022-07-25T02:43:01.366Z,21.52
2022-07-25T02:44:01.470Z,21.52
2022-07-25T02:45:01.577Z,21.44
2022-07-25T02:46:01.768Z,21.52
2022-07-25T02:47:01.873Z,21.44
2022-07-25T02:48:01.975Z,21.52
2022-07-25T02:49:02.191Z,21.28
2022-07-25T02:50:02.184Z,21.28
2022-07-25T02:51:02.284Z,21.52
2022-07-25T02:52:02.385Z,21.44
2022-07-25T02:53:02.536Z,21.28
2022-07-25T02:54:02.637Z,21.2
2022-07-25T02:55:07.502Z,21.44
2022-07-25T02:56:02.896Z,21.44
2022-07-25T02:57:03.043Z,21.2
2022-07-25T02:58:03.148Z,21.6
2022-07-25T02:59:03.252Z,21.52
2022-07-25T03:00:03.407Z,21.52
2022-07-25T03:01:03.598Z,21.44
2022-07-25T03:02:03.604Z,21.28
2022-07-25T03:03:03.760Z,21.44
2022-07-25T03:04:04.242Z,21.28
2022-07-25T03:05:03.963Z,21.2
2022-07-25T03:06:04.062Z,21.2
2022-07-25T03:07:04.165Z,21.2
2022-07-25T03:08:04.271Z,21.2
2022-07-25T03:09:04.419Z,21.2
2022-07-25T03:10:08.703Z,21.2
2022-07-25T03:11:04.679Z,21.2
2022-07-25T03:12:04.728Z,21.28
2022-07-25T03:13:04.827Z,21.28
2022-07-25T03:14:05.177Z,21.2
2022-07-25T03:15:05.030Z,21.2
2022-07-25T03:16:05.180Z,21.2
2022-07-25T03:17:05.334Z,21.2
2022-07-25T03:18:05.382Z,21.28
2022-07-25T03:19:05.488Z,21.44
2022-07-25T03:20:05.595Z,21.28
2022-07-25T03:21:05.742Z,21.28
2022-07-25T03:22:05.892Z,21.12
2022-07-25T03:23:06.047Z,21.2
2022-07-25T03:24:06.313Z,21.04
2022-07-25T03:25:06.247Z,21.12
2022-07-25T03:26:06.350Z,21.04
2022-07-25T03:27:06.450Z,21.04
2022-07-25T03:28:06.558Z,21.04
2022-07-25T03:29:06.656Z,21.2
2022-07-25T03:30:06.808Z,21.2
2022-07-25T03:31:06.959Z,21.2
2022-07-25T03:32:07.167Z,21.12
2022-07-25T03:33:07.216Z,21.04
2022-07-25T03:34:07.748Z,21.12
2022-07-25T03:35:07.467Z,21.04
2022-07-25T03:36:07.569Z,21.04
2022-07-25T03:37:07.723Z,21.04
2022-07-25T03:38:07.880Z,21.04
2022-07-25T03:39:07.973Z,21.04
2022-07-25T03:40:08.076Z,21.12
2022-07-25T03:41:08.233Z,21.12
2022-07-25T03:42:08.333Z,21.12
2022-07-25T03:43:08.482Z,21.12
2022-07-25T03:44:09.003Z,21.12
2022-07-25T03:45:08.736Z,21.04
2022-07-25T03:46:08.884Z,20.88
2022-07-25T03:47:08.946Z,21.04
2022-07-25T03:48:09.044Z,21.04
2022-07-25T03:49:09.226Z,21.04
2022-07-25T03:50:09.303Z,20.88
2022-07-25T03:51:09.446Z,20.8
2022-07-25T03:52:09.607Z,21.04
2022-07-25T03:53:10.394Z,21.04
2022-07-25T03:54:10.258Z,21.04
2022-07-25T03:55:09.958Z,21.12
2022-07-25T03:56:10.061Z,21.2
2022-07-25T03:57:10.216Z,21.28
2022-07-25T03:58:10.361Z,21.2
2022-07-25T03:59:10.514Z,21.12
2022-07-25T04:00:10.632Z,21.12
2022-07-25T04:01:10.827Z,21.2
2022-07-25T04:02:10.931Z,21.28
2022-07-25T04:03:10.971Z,21.28
2022-07-25T04:04:11.129Z,21.28
2022-07-25T04:05:11.271Z,21.44
2022-07-25T04:06:11.381Z,21.44
2022-07-25T04:07:11.485Z,21.28
2022-07-25T04:08:11.583Z,21.28
2022-07-25T04:09:11.684Z,21.44
2022-07-25T04:10:11.847Z,21.52
2022-07-25T04:11:11.988Z,21.52
2022-07-25T04:12:12.142Z,21.52
2022-07-25T04:13:12.241Z,21.6
2022-07-25T04:14:12.343Z,21.6
2022-07-25T04:15:12.501Z,21.68
2022-07-25T04:16:14.785Z,21.68
2022-07-25T04:17:12.754Z,21.68
2022-07-25T04:18:13.161Z,21.84
2022-07-25T04:19:12.953Z,21.84
2022-07-25T04:20:13.059Z,21.84
2022-07-25T04:21:13.209Z,21.84
2022-07-25T04:22:13.358Z,21.92
2022-07-25T04:23:13.510Z,21.84
2022-07-25T04:24:13.612Z,21.92
2022-07-25T04:25:13.713Z,21.92
2022-07-25T04:26:13.869Z,22
2022-07-25T04:27:14.018Z,22.08
2022-07-25T04:28:14.120Z,22.08
2022-07-25T04:29:14.221Z,22.24
2022-07-25T04:30:23.679Z,22.32
2022-07-25T04:31:14.538Z,22.4
2022-07-25T04:32:14.766Z,22.4
2022-07-25T04:33:14.731Z,22.48
2022-07-25T04:34:14.835Z,22.48
2022-07-25T04:35:14.983Z,22.4
2022-07-25T04:36:15.088Z,22.4
2022-07-25T04:37:15.190Z,22.48
2022-07-25T04:38:15.295Z,22.64
2022-07-25T04:39:15.398Z,22.48
2022-07-25T04:40:15.544Z,22.48
2022-07-25T04:41:15.698Z,22.48
2022-07-25T04:42:15.800Z,22.48
2022-07-25T04:43:15.906Z,22.64
2022-07-25T04:44:16.003Z,22.72
2022-07-25T04:45:17.629Z,22.64
2022-07-25T04:46:16.343Z,22.72
2022-07-25T04:47:16.356Z,22.8
2022-07-25T04:48:16.514Z,22.88
2022-07-25T04:49:16.652Z,23.04
2022-07-25T04:50:17.524Z,22.8
2022-07-25T04:51:16.863Z,22.88
2022-07-25T04:52:17.019Z,22.88
2022-07-25T04:53:17.119Z,23.04
2022-07-25T04:54:17.268Z,23.12
2022-07-25T04:55:17.375Z,23.2
2022-07-25T04:56:17.476Z,23.2
2022-07-25T04:57:17.627Z,23.12
2022-07-25T04:58:17.728Z,23.12
2022-07-25T04:59:17.828Z,23.04
2022-07-25T05:00:17.982Z,23.04
2022-07-25T05:01:18.152Z,22.88
2022-07-25T05:02:18.366Z,23.04
2022-07-25T05:03:18.338Z,23.2
2022-07-25T05:04:18.492Z,23.44
2022-07-25T05:05:21.249Z,23.44
2022-07-25T05:06:18.746Z,23.44
2022-07-25T05:07:18.897Z,23.44
2022-07-25T05:08:18.998Z,23.6
2022-07-25T05:09:19.104Z,23.6
2022-07-25T05:10:19.251Z,23.6
2022-07-25T05:11:19.358Z,23.6
2022-07-25T05:12:19.456Z,23.6
2022-07-25T05:13:19.563Z,23.6
2022-07-25T05:14:19.675Z,23.6
2022-07-25T05:15:19.810Z,23.84
2022-07-25T05:16:20.084Z,23.84
2022-07-25T05:17:20.119Z,23.68
2022-07-25T05:18:20.225Z,23.6
2022-07-25T05:19:20.317Z,23.6
2022-07-25T05:20:20.476Z,23.92
2022-07-25T05:21:20.579Z,23.92
2022-07-25T05:22:23.063Z,24
2022-07-25T05:23:20.784Z,24
2022-07-25T05:24:20.932Z,24
2022-07-25T05:25:21.029Z,24.24
2022-07-25T05:26:21.139Z,24.24
2022-07-25T05:27:21.296Z,24.32
2022-07-25T05:28:21.445Z,24.24
2022-07-25T05:29:21.539Z,24.4
2022-07-25T05:30:21.660Z,24.4
2022-07-25T05:31:21.837Z,24.32
2022-07-25T05:32:21.908Z,24.64
2022-07-25T05:33:21.997Z,24.48
2022-07-25T05:34:22.103Z,24.72
2022-07-25T05:35:22.212Z,24.8
2022-07-25T05:36:22.308Z,24.8
2022-07-25T05:37:22.405Z,24.8
2022-07-25T05:38:22.518Z,24.88
2022-07-25T05:39:22.608Z,25.12
2022-07-25T05:40:22.714Z,25.2
2022-07-25T05:41:22.863Z,25.52
2022-07-25T05:42:22.962Z,25.6
2022-07-25T05:43:23.067Z,25.6
2022-07-25T05:44:23.223Z,25.44
2022-07-25T05:45:23.320Z,25.44
2022-07-25T05:46:23.499Z,25.28
2022-07-25T05:47:23.538Z,25.28
2022-07-25T05:48:23.836Z,25.12
2022-07-25T05:49:23.824Z,25.28
2022-07-25T05:50:23.934Z,25.12
2022-07-25T05:51:27.453Z,25.04
2022-07-25T05:52:24.131Z,25.04
2022-07-25T05:53:24.236Z,25.12
2022-07-25T05:54:24.352Z,25.2
2022-07-25T05:55:24.495Z,25.28
2022-07-25T05:56:24.646Z,25.44
2022-07-25T05:57:24.795Z,25.84
2022-07-25T05:58:29.244Z,25.84
2022-07-25T05:59:25.057Z,25.84
2022-07-25T06:00:25.172Z,26
2022-07-25T06:01:25.369Z,25.92
2022-07-25T06:02:25.612Z,26.08
2022-07-25T06:03:25.666Z,26.08
2022-07-25T06:04:27.319Z,26.08
2022-07-25T06:05:25.811Z,26.48
2022-07-25T06:06:25.909Z,26.48
2022-07-25T06:07:26.012Z,26.4
2022-07-25T06:08:26.163Z,26.4
2022-07-25T06:09:26.269Z,26.8
2022-07-25T06:10:26.438Z,26.72
2022-07-25T06:11:26.577Z,26.88
2022-07-25T06:12:26.673Z,26.8
2022-07-25T06:13:26.774Z,26.88
2022-07-25T06:14:26.876Z,26.88
2022-07-25T06:15:27.519Z,27.12
2022-07-25T06:16:27.148Z,27.04
2022-07-25T06:17:32.094Z,27.52
2022-07-25T06:18:27.347Z,27.28
2022-07-25T06:19:27.442Z,27.44
2022-07-25T06:20:27.577Z,27.44
2022-07-25T06:21:27.691Z,27.44
2022-07-25T06:22:27.796Z,27.52
2022-07-25T06:23:28.025Z,27.52
2022-07-25T06:24:28.134Z,27.04
2022-07-25T06:25:28.204Z,27.2
2022-07-25T06:26:28.306Z,27.2
2022-07-25T06:27:29.449Z,27.28
2022-07-25T06:28:28.562Z,27.28
2022-07-25T06:29:28.703Z,27.28
2022-07-25T06:30:28.814Z,27.52
2022-07-25T06:31:29.023Z,27.68
2022-07-25T06:32:29.120Z,27.6
2022-07-25T06:33:29.216Z,27.6
2022-07-25T06:34:29.324Z,27.52
2022-07-25T06:35:29.425Z,27.68
2022-07-25T06:36:32.144Z,27.92
2022-07-25T06:37:29.674Z,27.84
2022-07-25T06:38:29.780Z,27.6
2022-07-25T06:39:29.875Z,27.68
2022-07-25T06:40:29.984Z,27.92
2022-07-25T06:41:30.076Z,28.48
2022-07-25T06:42:30.232Z,28.48
2022-07-25T06:43:30.333Z,28.08
2022-07-25T06:44:30.439Z,28.32
2022-07-25T06:45:30.546Z,28.4
2022-07-25T06:46:30.664Z,28.24
2022-07-25T06:47:34.168Z,28.48
2022-07-25T06:48:30.930Z,28.64
2022-07-25T06:49:31.006Z,28.32
2022-07-25T06:50:31.151Z,28.32
2022-07-25T06:51:31.299Z,29.04
2022-07-25T06:52:31.458Z,28.72
2022-07-25T06:53:31.556Z,28.8
2022-07-25T06:54:31.653Z,28.88
2022-07-25T06:55:31.757Z,29.2
2022-07-25T06:56:31.863Z,29.6
2022-07-25T06:57:31.970Z,29.28
2022-07-25T06:58:32.111Z,29.04
2022-07-25T06:59:32.214Z,29.04
2022-07-25T07:00:32.390Z,29.44
2022-07-25T07:01:32.564Z,29.28
2022-07-25T07:02:32.620Z,29.28
2022-07-25T07:03:32.776Z,29.52
2022-07-25T07:04:32.829Z,29.92
2022-07-25T07:05:32.976Z,29.68
2022-07-25T07:06:33.128Z,30.08
2022-07-25T07:07:33.230Z,30.88
2022-07-25T07:08:33.382Z,30.4
2022-07-25T07:09:33.485Z,30
2022-07-25T07:10:33.592Z,30
2022-07-25T07:11:33.741Z,30.32
2022-07-25T07:12:33.895Z,30.24
2022-07-25T07:13:34.008Z,30.08
2022-07-25T07:14:34.098Z,30.4
2022-07-25T07:15:34.198Z,30.08
2022-07-25T07:16:34.381Z,29.92
2022-07-25T07:17:34.403Z,30
2022-07-25T07:18:34.510Z,30.32
2022-07-25T07:19:34.612Z,30.88
2022-07-25T07:20:34.732Z,30.08
2022-07-25T07:21:34.858Z,30
2022-07-25T07:22:34.960Z,30
2022-07-25T07:23:35.112Z,30.08
2022-07-25T07:24:37.784Z,30.8
2022-07-25T07:25:35.325Z,30.88
2022-07-25T07:26:35.421Z,30.64
2022-07-25T07:27:35.568Z,30.08
2022-07-25T07:28:35.673Z,30.72
2022-07-25T07:29:35.773Z,30.48
2022-07-25T07:30:58.962Z,31.2
2022-07-25T07:31:36.038Z,31.84
2022-07-25T07:32:36.080Z,31.12
2022-07-25T07:33:36.182Z,30.88
2022-07-25T07:34:36.286Z,31.2
2022-07-25T07:35:36.431Z,31.52
2022-07-25T07:36:36.586Z,30.88
2022-07-25T07:37:40.138Z,31.68
2022-07-25T07:38:36.854Z,31.84
2022-07-25T07:39:36.998Z,31.28
2022-07-25T07:40:37.147Z,31.12
2022-07-25T07:41:37.298Z,30.88
2022-07-25T07:42:37.400Z,30.88
2022-07-25T07:43:37.547Z,31.52
2022-07-25T07:44:37.659Z,31.04
2022-07-25T07:45:37.764Z,31.6
2022-07-25T07:46:37.951Z,31.04
2022-07-25T07:47:37.956Z,31.28
2022-07-25T07:48:38.107Z,31.28
2022-07-25T07:49:38.169Z,31.2
2022-07-25T07:50:38.265Z,31.6
2022-07-25T07:51:38.365Z,32.4
2022-07-25T07:52:38.521Z,31.52
2022-07-25T07:53:38.672Z,32.24
2022-07-25T07:54:38.784Z,32.88
2022-07-25T07:55:38.877Z,32.48
2022-07-25T07:56:38.976Z,32.8
2022-07-25T07:57:39.077Z,32.8
2022-07-25T07:58:39.229Z,31.92
2022-07-25T07:59:39.329Z,32.24
2022-07-25T08:00:39.432Z,32.48
2022-07-25T08:01:39.643Z,32.32
2022-07-25T08:02:39.706Z,33.44
2022-07-25T08:03:39.840Z,33.04
2022-07-25T08:04:39.940Z,32.4
2022-07-25T08:05:40.043Z,32
2022-07-25T08:06:40.151Z,32.08
2022-07-25T08:07:40.247Z,32
2022-07-25T08:08:40.422Z,31.84
2022-07-25T08:09:40.562Z,32.08
2022-07-25T08:10:40.703Z,31.6
2022-07-25T08:11:40.860Z,31.84
2022-07-25T08:12:41.006Z,31.68
2022-07-25T08:13:41.107Z,32.56
2022-07-25T08:14:41.266Z,32.48
2022-07-25T08:15:41.466Z,32.32
2022-07-25T08:16:41.584Z,32.32
2022-07-25T08:17:41.623Z,32.32
2022-07-25T08:18:41.767Z,32.72
2022-07-25T08:19:41.873Z,31.84
2022-07-25T08:20:41.970Z,31.6
2022-07-25T08:21:42.075Z,32.4
2022-07-25T08:22:42.231Z,32.72
2022-07-25T08:23:42.379Z,33.44
2022-07-25T08:24:42.481Z,34.08
2022-07-25T08:25:42.633Z,33.92
2022-07-25T08:26:42.737Z,33.28
2022-07-25T08:27:42.886Z,33.04
2022-07-25T08:28:43.044Z,33.28
2022-07-25T08:29:43.142Z,32.88
2022-07-25T08:30:43.291Z,32.88
2022-07-25T08:31:43.440Z,32.56
2022-07-25T08:32:43.499Z,32.88
2022-07-25T08:33:43.650Z,32.88
2022-07-25T08:34:43.802Z,33.2
2022-07-25T08:35:43.951Z,34
2022-07-25T08:36:44.103Z,33.04
2022-07-25T08:37:44.203Z,32.8
2022-07-25T08:38:44.359Z,34
2022-07-25T08:39:44.460Z,34.08
2022-07-25T08:40:44.615Z,33.68
2022-07-25T08:41:44.761Z,34
2022-07-25T08:42:44.872Z,33.6
2022-07-25T08:43:44.977Z,33.2
2022-07-25T08:44:45.077Z,32.56
2022-07-25T08:45:45.222Z,32.56
2022-07-25T08:46:45.476Z,33.04
2022-07-25T08:47:45.480Z,32.4
2022-07-25T08:48:45.676Z,32.8
2022-07-25T08:49:45.729Z,32.4
2022-07-25T08:50:45.832Z,32.48
2022-07-25T08:51:45.937Z,33.28
2022-07-25T08:52:46.089Z,34.56
2022-07-25T08:53:48.447Z,34.08
2022-07-25T08:54:46.322Z,33.92
2022-07-25T08:55:46.391Z,34
2022-07-25T08:56:46.553Z,33.12
2022-07-25T08:57:46.644Z,34.08
2022-07-25T08:58:46.758Z,35.04
2022-07-25T08:59:46.903Z,33.6
2022-07-25T09:00:47.052Z,34.8
2022-07-25T09:01:47.282Z,36.8
2022-07-25T09:02:47.402Z,37.04
2022-07-25T09:03:47.460Z,37.44
2022-07-25T09:04:47.607Z,35.68
2022-07-25T09:05:47.710Z,34.24
2022-07-25T09:06:47.811Z,34.24
2022-07-25T09:07:47.919Z,34.08
2022-07-25T09:08:48.015Z,34.48
2022-07-25T09:09:48.124Z,34.88
2022-07-25T09:10:48.281Z,36
2022-07-25T09:11:48.375Z,35.04
2022-07-25T09:12:48.477Z,33.6
2022-07-25T09:13:48.573Z,34
2022-07-25T09:14:48.736Z,32.88
2022-07-25T09:15:49.470Z,33.04
2022-07-25T09:16:48.933Z,33.52
2022-07-25T09:17:49.039Z,33.6
2022-07-25T09:18:49.137Z,33.6
2022-07-25T09:19:49.239Z,34.56
2022-07-25T09:20:49.392Z,33.28
2022-07-25T09:21:50.011Z,33.6
2022-07-25T09:22:49.599Z,34.4
2022-07-25T09:23:49.744Z,33.92
2022-07-25T09:24:49.846Z,34.72
2022-07-25T09:25:49.955Z,34.24
2022-07-25T09:26:50.115Z,34.88
2022-07-25T09:27:50.249Z,36.32
2022-07-25T09:28:50.357Z,35.04
2022-07-25T09:29:50.457Z,35.2
2022-07-25T09:30:50.607Z,35.52
2022-07-25T09:31:50.662Z,35.6
2022-07-25T09:32:50.781Z,34.32
2022-07-25T09:33:50.911Z,34.72
2022-07-25T09:34:51.067Z,34.4
2022-07-25T09:35:51.171Z,34
2022-07-25T09:36:51.279Z,35.2
2022-07-25T09:37:51.385Z,36
2022-07-25T09:38:51.526Z,35.92
2022-07-25T09:39:51.674Z,35.6
2022-07-25T09:40:51.778Z,35.12
2022-07-25T09:41:51.887Z,35.44
2022-07-25T09:42:51.981Z,35.04
2022-07-25T09:43:52.096Z,36.32
2022-07-25T09:44:52.244Z,37.84
2022-07-25T09:45:52.453Z,36.48
2022-07-25T09:46:52.495Z,36.08
2022-07-25T09:47:52.598Z,35.52
2022-07-25T09:48:52.785Z,34.8
2022-07-25T09:49:52.897Z,33.92
2022-07-25T09:50:53.047Z,33.68
2022-07-25T09:51:53.209Z,33.68
2022-07-25T09:52:53.304Z,33.44
2022-07-25T09:53:53.410Z,33.28
2022-07-25T09:54:53.506Z,33.84
2022-07-25T09:55:53.611Z,34.56
2022-07-25T09:56:53.763Z,34.48
2022-07-25T09:57:53.912Z,34.4
2022-07-25T09:58:54.089Z,33.68
2022-07-25T09:59:54.169Z,33.92
2022-07-25T10:00:54.317Z,33.68
2022-07-25T10:01:54.524Z,34.08
2022-07-25T10:02:54.566Z,33.44
2022-07-25T10:03:54.672Z,33.12
2022-07-25T10:04:54.823Z,32.88
2022-07-25T10:05:54.974Z,34
2022-07-25T10:06:55.133Z,35.28
2022-07-25T10:07:55.284Z,35.44
2022-07-25T10:08:55.404Z,35.04
2022-07-25T10:09:55.487Z,36.08
2022-07-25T10:10:55.638Z,35.2
2022-07-25T10:11:55.794Z,34.4
2022-07-25T10:12:55.940Z,33.92
2022-07-25T10:13:56.043Z,34.32
2022-07-25T10:14:56.194Z,33.84
2022-07-25T10:15:56.299Z,34.32
2022-07-25T10:16:56.415Z,35.04
2022-07-25T10:17:56.501Z,35.2
2022-07-25T10:18:56.660Z,35.2
2022-07-25T10:19:58.801Z,34.32
2022-07-25T10:20:56.907Z,34.8
2022-07-25T10:21:57.008Z,34.24
2022-07-25T10:22:57.961Z,34.56
2022-07-25T10:23:57.216Z,34.08
2022-07-25T10:24:57.364Z,34.08
2022-07-25T10:25:57.463Z,33.6
2022-07-25T10:26:57.573Z,34.72
2022-07-25T10:27:57.715Z,35.52
2022-07-25T10:28:57.931Z,36
2022-07-25T10:29:58.085Z,35.6
2022-07-25T10:30:58.255Z,35.04
2022-07-25T10:31:58.285Z,35.44
2022-07-25T10:32:58.431Z,37.2
2022-07-25T10:33:58.540Z,38.08
2022-07-25T10:34:58.692Z,36.48
2022-07-25T10:35:58.843Z,35.68
2022-07-25T10:36:58.937Z,36.56
2022-07-25T10:37:59.040Z,36.24
2022-07-25T10:38:59.188Z,36.88
2022-07-25T10:39:59.293Z,37.28
2022-07-25T10:40:59.400Z,38.08
2022-07-25T10:41:59.496Z,38.56
2022-07-25T10:42:59.597Z,35.2
2022-07-25T10:43:59.700Z,35.12
2022-07-25T10:44:59.858Z,34.48
2022-07-25T10:46:00.031Z,33.92
2022-07-25T10:47:00.069Z,35.44
2022-07-25T10:48:00.158Z,35.68
2022-07-25T10:49:00.332Z,35.44
2022-07-25T10:50:16.588Z,36.24
2022-07-25T10:51:00.558Z,35.6
2022-07-25T10:52:00.619Z,35.2
2022-07-25T10:53:00.772Z,35.12
2022-07-25T10:54:00.927Z,36.88
2022-07-25T10:55:01.086Z,36.4
2022-07-25T10:56:05.922Z,36
2022-07-25T10:57:01.379Z,36.88
2022-07-25T10:58:16.905Z,37.28
2022-07-25T10:59:01.583Z,37.2
2022-07-25T11:00:01.732Z,36.8
2022-07-25T11:01:01.851Z,38.08
2022-07-25T11:02:01.960Z,37.44
2022-07-25T11:03:02.149Z,36.8
2022-07-25T11:04:02.151Z,36.56
2022-07-25T11:05:02.294Z,35.6
2022-07-25T11:06:02.394Z,35.44
2022-07-25T11:07:02.504Z,35.68
2022-07-25T11:08:20.986Z,37.68
2022-07-25T11:09:02.703Z,38.24
2022-07-25T11:10:02.811Z,38.8
2022-07-25T11:11:02.904Z,38.08
2022-07-25T11:12:03.054Z,36
2022-07-25T11:13:03.208Z,36.08
2022-07-25T11:14:03.315Z,36.08
2022-07-25T11:15:03.413Z,37.04
2022-07-25T11:16:03.516Z,36.72
2022-07-25T11:17:03.718Z,35.04
2022-07-25T11:18:03.787Z,34.48
2022-07-25T11:19:04.256Z,35.04
2022-07-25T11:20:04.038Z,35.04
2022-07-25T11:21:06.387Z,35.44
2022-07-25T11:22:04.277Z,35.04
2022-07-25T11:23:04.383Z,34.32
2022-07-25T11:24:04.480Z,34.88
2022-07-25T11:25:04.583Z,35.12
2022-07-25T11:26:04.733Z,35.6
2022-07-25T11:27:08.448Z,35.04
2022-07-25T11:28:04.998Z,35.68
2022-07-25T11:29:05.305Z,37.52
2022-07-25T11:30:05.204Z,38.88
2022-07-25T11:31:05.295Z,40.32
2022-07-25T11:32:05.506Z,38.8
2022-07-25T11:33:05.600Z,38.72
2022-07-25T11:34:05.697Z,39.2
2022-07-25T11:35:05.854Z,39.92
2022-07-25T11:36:05.955Z,39.52
2022-07-25T11:37:06.056Z,38.08
2022-07-25T11:38:06.382Z,38.4
2022-07-25T11:39:06.531Z,40.32
2022-07-25T11:40:06.491Z,38.32
2022-07-25T11:41:06.620Z,37.04
2022-07-25T11:42:06.765Z,38.08
2022-07-25T11:43:06.872Z,37.52
2022-07-25T11:44:07.027Z,36.32
2022-07-25T11:45:07.187Z,38.8
2022-07-25T11:46:07.355Z,39.68
2022-07-25T11:47:07.430Z,39.44
2022-07-25T11:48:07.582Z,39.28
2022-07-25T11:49:07.885Z,38.72
2022-07-25T11:50:07.731Z,37.68
2022-07-25T11:51:07.833Z,38.08
2022-07-25T11:52:07.937Z,36.08
2022-07-25T11:53:08.036Z,37.12
2022-07-25T11:54:08.189Z,38.8
2022-07-25T11:55:08.296Z,38.88
2022-07-25T11:56:25.660Z,39.28
2022-07-25T11:57:08.495Z,38.56
2022-07-25T11:58:08.604Z,38.32
2022-07-25T11:59:08.959Z,38
2022-07-25T12:00:08.905Z,38.48
2022-07-25T12:01:09.055Z,37.04
2022-07-25T12:02:09.246Z,39.04
2022-07-25T12:03:09.508Z,37.84
2022-07-25T12:04:09.412Z,39.28
2022-07-25T12:05:09.571Z,39.2
2022-07-25T12:06:09.671Z,37.44
2022-07-25T12:07:09.820Z,36.56
2022-07-25T12:08:09.920Z,37.12
2022-07-25T12:09:12.011Z,36.8
2022-07-25T12:10:10.219Z,35.92
2022-07-25T12:11:10.323Z,37.92
2022-07-25T12:12:10.472Z,37.28
2022-07-25T12:13:10.576Z,38.48
2022-07-25T12:14:10.729Z,38.24
2022-07-25T12:15:10.837Z,37.2
2022-07-25T12:16:10.981Z,37.28
2022-07-25T12:17:11.178Z,38
2022-07-25T12:18:11.240Z,37.52
2022-07-25T12:19:11.396Z,36.08
2022-07-25T12:20:11.534Z,35.44
2022-07-25T12:21:11.642Z,36.32
2022-07-25T12:22:11.839Z,37.04
2022-07-25T12:23:11.897Z,37.04
2022-07-25T12:24:11.999Z,37.2
2022-07-25T12:25:12.151Z,36.72
2022-07-25T12:26:12.301Z,36
2022-07-25T12:27:12.462Z,35.12
2022-07-25T12:28:12.551Z,35.68
2022-07-25T12:29:12.658Z,35.04
2022-07-25T12:30:12.822Z,35.44
2022-07-25T12:31:12.956Z,36.48
2022-07-25T12:32:13.067Z,36
2022-07-25T12:33:13.167Z,35.52
2022-07-25T12:34:13.276Z,35.28
2022-07-25T12:35:13.372Z,35.28
2022-07-25T12:36:13.471Z,35.92
2022-07-25T12:37:13.612Z,37.12
2022-07-25T12:38:13.676Z,37.12
2022-07-25T12:39:13.776Z,36.4
2022-07-25T12:40:13.877Z,37.04
2022-07-25T12:41:17.771Z,37.52
2022-07-25T12:42:14.150Z,37.84
2022-07-25T12:43:14.295Z,38.08
2022-07-25T12:44:14.388Z,38.4
2022-07-25T12:45:14.489Z,37.44
2022-07-25T12:46:14.618Z,37.04
2022-07-25T12:47:14.759Z,37.92
2022-07-25T12:48:14.898Z,37.28
2022-07-25T12:49:15.185Z,36.32
2022-07-25T12:50:15.154Z,36.88
2022-07-25T12:51:15.252Z,35.84
2022-07-25T12:52:15.351Z,36.32
2022-07-25T12:53:15.504Z,36.4
2022-07-25T12:54:20.162Z,36.88
2022-07-25T12:55:15.768Z,36.88
2022-07-25T12:56:15.931Z,37.92
2022-07-25T12:57:16.062Z,38.8
2022-07-25T12:58:16.215Z,39.44
2022-07-25T12:59:16.325Z,38.88
2022-07-25T13:00:16.422Z,36.72
2022-07-25T13:01:16.552Z,36.32
2022-07-25T13:02:16.662Z,37.12
2022-07-25T13:03:16.721Z,37.84